Rodrigues Alves, Brazil
Current Conditions -  °F | °C
As of 5:00 PM on Tuesday 21 Oct 2014 (Local Time) from SLRI Reporting Station
Broken Clouds Broken Clouds  
Wind Chill: 82°   Ceiling: 8000
Heat Index: 88°   Visibility: 6mi
Dew Point: 73°   Wind: 7mph
Humidity: 74%   Direction: 270°W
Pressure: 29.83"   Gusts: NA
Location:  11.88°S, 65.02°W
Report Text: SLRI 212100Z 27006KT 9999 SCT015 BKN080 28/23 Q1010
Loading
Personal Weather Stations






























Interactive Weather Map
Tropical Storm Tracking
New forecast layout! Learn more

10-Day Weather Forecast

Advertisements
Track Severe Weather on mobile